sensor_id;sensor_type;location;lat;lon;timestamp;P1;durP1;ratioP1;P2;durP2;ratioP2
8225;SDS011;4154;48.810;9.012;2023-04-08T00:02:10;9.63;;;8.73;;
8225;SDS011;4154;48.810;9.012;2023-04-08T00:04:36;10.33;;;9.33;;
8225;SDS011;4154;48.810;9.012;2023-04-08T00:07:02;9.67;;;8.67;;
8225;SDS011;4154;48.810;9.012;2023-04-08T00:09:27;10.13;;;9.03;;
8225;SDS011;4154;48.810;9.012;2023-04-08T00:11:53;10.07;;;8.97;;
8225;SDS011;4154;48.810;9.012;2023-04-08T00:14:18;9.50;;;8.60;;
8225;SDS011;4154;48.810;9.012;2023-04-08T00:16:45;8.83;;;8.03;;
8225;SDS011;4154;48.810;9.012;2023-04-08T00:19:11;10.07;;;9.03;;
8225;SDS011;4154;48.810;9.012;2023-04-08T00:21:36;9.73;;;8.80;;
8225;SDS011;4154;48.810;9.012;2023-04-08T00:24:02;9.53;;;8.53;;
8225;SDS011;4154;48.810;9.012;2023-04-08T00:26:28;9.50;;;8.50;;
8225;SDS011;4154;48.810;9.012;2023-04-08T00:28:53;9.13;;;8.23;;
8225;SDS011;4154;48.810;9.012;2023-04-08T00:31:19;9.53;;;8.53;;
8225;SDS011;4154;48.810;9.012;2023-04-08T00:33:45;9.13;;;8.23;;
8225;SDS011;4154;48.810;9.012;2023-04-08T00:36:11;9.67;;;8.67;;
8225;SDS011;4154;48.810;9.012;2023-04-08T00:38:36;10.07;;;8.87;;
8225;SDS011;4154;48.810;9.012;2023-04-08T00:41:02;9.83;;;8.83;;
8225;SDS011;4154;48.810;9.012;2023-04-08T00:43:28;9.00;;;8.10;;
8225;SDS011;4154;48.810;9.012;2023-04-08T00:45:54;9.57;;;8.57;;
8225;SDS011;4154;48.810;9.012;2023-04-08T00:48:20;9.47;;;8.57;;
8225;SDS011;4154;48.810;9.012;2023-04-08T00:50:45;10.00;;;9.00;;
8225;SDS011;4154;48.810;9.012;2023-04-08T00:53:17;9.57;;;8.67;;
8225;SDS011;4154;48.810;9.012;2023-04-08T00:55:43;10.10;;;9.10;;
8225;SDS011;4154;48.810;9.012;2023-04-08T00:58:09;10.20;;;9.30;;
8225;SDS011;4154;48.810;9.012;2023-04-08T01:00:38;10.13;;;9.13;;
8225;SDS011;4154;48.810;9.012;2023-04-08T01:03:24;10.00;;;9.00;;
8225;SDS011;4154;48.810;9.012;2023-04-08T01:06:19;10.23;;;9.33;;
8225;SDS011;4154;48.810;9.012;2023-04-08T01:08:59;10.40;;;9.40;;
8225;SDS011;4154;48.810;9.012;2023-04-08T01:11:29;10.40;;;9.40;;
8225;SDS011;4154;48.810;9.012;2023-04-08T01:13:59;10.43;;;9.43;;
8225;SDS011;4154;48.810;9.012;2023-04-08T01:16:30;10.20;;;9.20;;
8225;SDS011;4154;48.810;9.012;2023-04-08T01:18:57;9.63;;;8.63;;
8225;SDS011;4154;48.810;9.012;2023-04-08T01:21:24;10.30;;;9.30;;
8225;SDS011;4154;48.810;9.012;2023-04-08T01:23:58;10.07;;;9.07;;
8225;SDS011;4154;48.810;9.012;2023-04-08T01:26:37;10.20;;;9.10;;
8225;SDS011;4154;48.810;9.012;2023-04-08T01:29:05;10.07;;;9.07;;
8225;SDS011;4154;48.810;9.012;2023-04-08T01:31:33;10.70;;;9.70;;
8225;SDS011;4154;48.810;9.012;2023-04-08T01:34:02;10.53;;;9.43;;
8225;SDS011;4154;48.810;9.012;2023-04-08T01:36:30;10.33;;;9.23;;
8225;SDS011;4154;48.810;9.012;2023-04-08T01:38:59;10.40;;;9.30;;
8225;SDS011;4154;48.810;9.012;2023-04-08T01:41:29;11.50;;;10.40;;
8225;SDS011;4154;48.810;9.012;2023-04-08T01:43:59;11.27;;;10.07;;
8225;SDS011;4154;48.810;9.012;2023-04-08T01:46:27;11.87;;;10.60;;
8225;SDS011;4154;48.810;9.012;2023-04-08T01:48:56;12.17;;;10.40;;
8225;SDS011;4154;48.810;9.012;2023-04-08T01:51:22;11.63;;;10.40;;
8225;SDS011;4154;48.810;9.012;2023-04-08T01:53:50;11.83;;;10.17;;
8225;SDS011;4154;48.810;9.012;2023-04-08T01:56:16;11.67;;;10.17;;
8225;SDS011;4154;48.810;9.012;2023-04-08T01:58:47;10.63;;;9.53;;
8225;SDS011;4154;48.810;9.012;2023-04-08T02:01:19;10.60;;;9.30;;
8225;SDS011;4154;48.810;9.012;2023-04-08T02:03:49;10.67;;;9.43;;
8225;SDS011;4154;48.810;9.012;2023-04-08T02:06:20;9.73;;;8.73;;
8225;SDS011;4154;48.810;9.012;2023-04-08T02:08:46;10.67;;;9.03;;
8225;SDS011;4154;48.810;9.012;2023-04-08T02:11:11;11.17;;;9.20;;
8225;SDS011;4154;48.810;9.012;2023-04-08T02:13:37;10.83;;;9.67;;
8225;SDS011;4154;48.810;9.012;2023-04-08T02:16:22;10.33;;;9.10;;
8225;SDS011;4154;48.810;9.012;2023-04-08T02:19:27;10.70;;;9.13;;
8225;SDS011;4154;48.810;9.012;2023-04-08T02:22:01;11.73;;;9.87;;
8225;SDS011;4154;48.810;9.012;2023-04-08T02:24:41;11.40;;;9.70;;
8225;SDS011;4154;48.810;9.012;2023-04-08T02:27:09;10.60;;;9.50;;
8225;SDS011;4154;48.810;9.012;2023-04-08T02:29:35;11.67;;;10.17;;
8225;SDS011;4154;48.810;9.012;2023-04-08T02:32:04;12.23;;;10.10;;
8225;SDS011;4154;48.810;9.012;2023-04-08T02:34:32;11.83;;;9.77;;
8225;SDS011;4154;48.810;9.012;2023-04-08T02:36:59;13.00;;;10.63;;
8225;SDS011;4154;48.810;9.012;2023-04-08T02:39:30;11.50;;;9.90;;
8225;SDS011;4154;48.810;9.012;2023-04-08T02:41:57;11.17;;;9.90;;
8225;SDS011;4154;48.810;9.012;2023-04-08T02:44:23;11.10;;;9.53;;
8225;SDS011;4154;48.810;9.012;2023-04-08T02:46:48;11.00;;;9.33;;
8225;SDS011;4154;48.810;9.012;2023-04-08T02:49:14;11.90;;;10.03;;
8225;SDS011;4154;48.810;9.012;2023-04-08T02:51:40;11.00;;;9.67;;
8225;SDS011;4154;48.810;9.012;2023-04-08T02:54:06;11.47;;;9.10;;
8225;SDS011;4154;48.810;9.012;2023-04-08T02:56:31;12.27;;;9.93;;
8225;SDS011;4154;48.810;9.012;2023-04-08T02:58:57;11.27;;;9.60;;
8225;SDS011;4154;48.810;9.012;2023-04-08T03:01:23;12.57;;;10.07;;
8225;SDS011;4154;48.810;9.012;2023-04-08T03:03:49;12.27;;;9.97;;
8225;SDS011;4154;48.810;9.012;2023-04-08T03:06:15;12.93;;;10.10;;
8225;SDS011;4154;48.810;9.012;2023-04-08T03:08:41;11.77;;;9.80;;
8225;SDS011;4154;48.810;9.012;2023-04-08T03:11:07;11.20;;;9.33;;
8225;SDS011;4154;48.810;9.012;2023-04-08T03:13:33;11.70;;;9.37;;
8225;SDS011;4154;48.810;9.012;2023-04-08T03:15:59;10.23;;;9.10;;
8225;SDS011;4154;48.810;9.012;2023-04-08T03:18:25;11.10;;;9.00;;
8225;SDS011;4154;48.810;9.012;2023-04-08T03:20:51;10.80;;;9.47;;
8225;SDS011;4154;48.810;9.012;2023-04-08T03:23:16;12.60;;;9.27;;
8225;SDS011;4154;48.810;9.012;2023-04-08T03:25:42;10.70;;;8.97;;
8225;SDS011;4154;48.810;9.012;2023-04-08T03:28:08;11.23;;;9.27;;
8225;SDS011;4154;48.810;9.012;2023-04-08T03:30:34;12.50;;;10.27;;
8225;SDS011;4154;48.810;9.012;2023-04-08T03:32:59;9.50;;;7.93;;
8225;SDS011;4154;48.810;9.012;2023-04-08T03:35:27;10.23;;;8.33;;
8225;SDS011;4154;48.810;9.012;2023-04-08T03:37:53;10.20;;;8.50;;
8225;SDS011;4154;48.810;9.012;2023-04-08T03:40:19;9.70;;;8.27;;
8225;SDS011;4154;48.810;9.012;2023-04-08T03:42:45;10.60;;;8.67;;
8225;SDS011;4154;48.810;9.012;2023-04-08T03:45:11;9.67;;;7.70;;
8225;SDS011;4154;48.810;9.012;2023-04-08T03:47:37;7.17;;;6.40;;
8225;SDS011;4154;48.810;9.012;2023-04-08T03:50:02;7.87;;;6.63;;
8225;SDS011;4154;48.810;9.012;2023-04-08T03:52:28;8.17;;;7.00;;
8225;SDS011;4154;48.810;9.012;2023-04-08T03:54:54;8.53;;;6.40;;
8225;SDS011;4154;48.810;9.012;2023-04-08T03:57:20;7.40;;;6.40;;
8225;SDS011;4154;48.810;9.012;2023-04-08T03:59:46;9.13;;;7.27;;
8225;SDS011;4154;48.810;9.012;2023-04-08T04:02:12;7.90;;;7.10;;
8225;SDS011;4154;48.810;9.012;2023-04-08T04:04:38;9.27;;;7.53;;
8225;SDS011;4154;48.810;9.012;2023-04-08T04:07:03;9.20;;;7.73;;
8225;SDS011;4154;48.810;9.012;2023-04-08T04:09:29;9.40;;;7.73;;
8225;SDS011;4154;48.810;9.012;2023-04-08T04:11:55;10.60;;;8.57;;
8225;SDS011;4154;48.810;9.012;2023-04-08T04:14:20;9.90;;;8.77;;
8225;SDS011;4154;48.810;9.012;2023-04-08T04:16:46;10.50;;;8.73;;
8225;SDS011;4154;48.810;9.012;2023-04-08T04:19:12;11.27;;;9.33;;
8225;SDS011;4154;48.810;9.012;2023-04-08T04:21:38;10.60;;;9.50;;
8225;SDS011;4154;48.810;9.012;2023-04-08T04:24:04;11.57;;;10.37;;
8225;SDS011;4154;48.810;9.012;2023-04-08T04:26:30;12.73;;;10.60;;
8225;SDS011;4154;48.810;9.012;2023-04-08T04:28:56;11.93;;;9.90;;
8225;SDS011;4154;48.810;9.012;2023-04-08T04:31:22;11.43;;;10.23;;
8225;SDS011;4154;48.810;9.012;2023-04-08T04:33:53;11.30;;;10.10;;
8225;SDS011;4154;48.810;9.012;2023-04-08T04:36:19;13.17;;;10.70;;
8225;SDS011;4154;48.810;9.012;2023-04-08T04:38:44;12.13;;;10.70;;
8225;SDS011;4154;48.810;9.012;2023-04-08T04:41:10;13.00;;;10.97;;
8225;SDS011;4154;48.810;9.012;2023-04-08T04:43:36;13.33;;;11.73;;
8225;SDS011;4154;48.810;9.012;2023-04-08T04:46:02;12.97;;;11.33;;
8225;SDS011;4154;48.810;9.012;2023-04-08T04:48:31;12.40;;;11.10;;
8225;SDS011;4154;48.810;9.012;2023-04-08T04:50:58;12.43;;;11.07;;
8225;SDS011;4154;48.810;9.012;2023-04-08T04:53:25;12.17;;;10.80;;
8225;SDS011;4154;48.810;9.012;2023-04-08T04:55:51;12.57;;;11.20;;
8225;SDS011;4154;48.810;9.012;2023-04-08T04:58:17;12.50;;;11.20;;
8225;SDS011;4154;48.810;9.012;2023-04-08T05:00:43;13.03;;;11.63;;
8225;SDS011;4154;48.810;9.012;2023-04-08T05:03:10;12.13;;;10.80;;
8225;SDS011;4154;48.810;9.012;2023-04-08T05:05:35;11.80;;;10.57;;
8225;SDS011;4154;48.810;9.012;2023-04-08T05:08:01;13.23;;;11.60;;
8225;SDS011;4154;48.810;9.012;2023-04-08T05:10:27;12.47;;;11.17;;
8225;SDS011;4154;48.810;9.012;2023-04-08T05:12:53;11.93;;;10.67;;
8225;SDS011;4154;48.810;9.012;2023-04-08T05:15:20;12.80;;;11.50;;
8225;SDS011;4154;48.810;9.012;2023-04-08T05:17:45;13.13;;;11.17;;
8225;SDS011;4154;48.810;9.012;2023-04-08T05:20:11;11.43;;;10.23;;
8225;SDS011;4154;48.810;9.012;2023-04-08T05:22:37;11.40;;;10.30;;
8225;SDS011;4154;48.810;9.012;2023-04-08T05:25:03;11.17;;;10.07;;
8225;SDS011;4154;48.810;9.012;2023-04-08T05:27:30;12.10;;;10.03;;
8225;SDS011;4154;48.810;9.012;2023-04-08T05:29:56;10.30;;;9.23;;
8225;SDS011;4154;48.810;9.012;2023-04-08T05:32:21;13.00;;;11.43;;
8225;SDS011;4154;48.810;9.012;2023-04-08T05:34:47;11.87;;;10.07;;
8225;SDS011;4154;48.810;9.012;2023-04-08T05:37:13;10.93;;;9.83;;
8225;SDS011;4154;48.810;9.012;2023-04-08T05:39:39;11.23;;;9.33;;
8225;SDS011;4154;48.810;9.012;2023-04-08T05:42:05;10.80;;;9.70;;
8225;SDS011;4154;48.810;9.012;2023-04-08T05:44:30;10.80;;;9.70;;
8225;SDS011;4154;48.810;9.012;2023-04-08T05:46:56;11.20;;;10.10;;
8225;SDS011;4154;48.810;9.012;2023-04-08T05:49:22;11.43;;;10.23;;
8225;SDS011;4154;48.810;9.012;2023-04-08T05:51:48;10.70;;;9.60;;
8225;SDS011;4154;48.810;9.012;2023-04-08T05:54:13;11.30;;;10.00;;
8225;SDS011;4154;48.810;9.012;2023-04-08T05:56:39;10.50;;;9.40;;
8225;SDS011;4154;48.810;9.012;2023-04-08T05:59:05;10.97;;;9.77;;
8225;SDS011;4154;48.810;9.012;2023-04-08T06:01:30;10.97;;;9.33;;
8225;SDS011;4154;48.810;9.012;2023-04-08T06:03:56;10.73;;;9.63;;
8225;SDS011;4154;48.810;9.012;2023-04-08T06:06:22;11.10;;;9.90;;
8225;SDS011;4154;48.810;9.012;2023-04-08T06:08:49;11.10;;;9.93;;
8225;SDS011;4154;48.810;9.012;2023-04-08T06:11:15;11.30;;;9.67;;
8225;SDS011;4154;48.810;9.012;2023-04-08T06:13:41;11.13;;;10.00;;
8225;SDS011;4154;48.810;9.012;2023-04-08T06:16:13;10.93;;;9.83;;
8225;SDS011;4154;48.810;9.012;2023-04-08T06:18:43;11.07;;;9.50;;
8225;SDS011;4154;48.810;9.012;2023-04-08T06:21:09;11.13;;;9.43;;
8225;SDS011;4154;48.810;9.012;2023-04-08T06:23:35;10.47;;;9.27;;
8225;SDS011;4154;48.810;9.012;2023-04-08T06:26:01;9.73;;;8.73;;
8225;SDS011;4154;48.810;9.012;2023-04-08T06:28:28;9.70;;;8.70;;
8225;SDS011;4154;48.810;9.012;2023-04-08T06:30:55;9.40;;;8.40;;
8225;SDS011;4154;48.810;9.012;2023-04-08T06:33:21;9.93;;;8.93;;
8225;SDS011;4154;48.810;9.012;2023-04-08T06:35:47;9.60;;;8.53;;
8225;SDS011;4154;48.810;9.012;2023-04-08T06:38:12;9.33;;;8.33;;
8225;SDS011;4154;48.810;9.012;2023-04-08T06:40:38;9.90;;;8.40;;
8225;SDS011;4154;48.810;9.012;2023-04-08T06:43:05;9.03;;;7.90;;
8225;SDS011;4154;48.810;9.012;2023-04-08T06:45:31;9.90;;;8.70;;
8225;SDS011;4154;48.810;9.012;2023-04-08T06:47:58;10.47;;;9.20;;
8225;SDS011;4154;48.810;9.012;2023-04-08T06:50:24;9.43;;;8.03;;
8225;SDS011;4154;48.810;9.012;2023-04-08T06:52:49;9.23;;;8.17;;
8225;SDS011;4154;48.810;9.012;2023-04-08T06:55:16;9.53;;;7.97;;
8225;SDS011;4154;48.810;9.012;2023-04-08T06:57:41;9.47;;;8.47;;
8225;SDS011;4154;48.810;9.012;2023-04-08T07:00:07;8.87;;;7.87;;
8225;SDS011;4154;48.810;9.012;2023-04-08T07:02:34;8.83;;;7.83;;
8225;SDS011;4154;48.810;9.012;2023-04-08T07:04:59;8.33;;;7.53;;
8225;SDS011;4154;48.810;9.012;2023-04-08T07:07:26;9.10;;;8.13;;
8225;SDS011;4154;48.810;9.012;2023-04-08T07:09:51;8.93;;;8.03;;
8225;SDS011;4154;48.810;9.012;2023-04-08T07:12:17;9.50;;;8.50;;
8225;SDS011;4154;48.810;9.012;2023-04-08T07:14:43;9.17;;;7.90;;
8225;SDS011;4154;48.810;9.012;2023-04-08T07:17:09;9.50;;;7.90;;
8225;SDS011;4154;48.810;9.012;2023-04-08T07:19:35;9.07;;;8.17;;
8225;SDS011;4154;48.810;9.012;2023-04-08T07:22:01;9.77;;;8.77;;
8225;SDS011;4154;48.810;9.012;2023-04-08T07:24:27;10.23;;;8.70;;
8225;SDS011;4154;48.810;9.012;2023-04-08T07:26:53;10.80;;;8.40;;
8225;SDS011;4154;48.810;9.012;2023-04-08T07:29:20;10.10;;;9.00;;
8225;SDS011;4154;48.810;9.012;2023-04-08T07:31:46;11.00;;;9.43;;
8225;SDS011;4154;48.810;9.012;2023-04-08T07:34:12;10.57;;;9.53;;
8225;SDS011;4154;48.810;9.012;2023-04-08T07:36:37;11.33;;;10.20;;
8225;SDS011;4154;48.810;9.012;2023-04-08T07:39:03;11.43;;;10.23;;
8225;SDS011;4154;48.810;9.012;2023-04-08T07:41:29;11.03;;;9.43;;
8225;SDS011;4154;48.810;9.012;2023-04-08T07:43:55;11.57;;;10.37;;
8225;SDS011;4154;48.810;9.012;2023-04-08T07:46:21;11.17;;;9.90;;
8225;SDS011;4154;48.810;9.012;2023-04-08T07:48:46;11.50;;;10.30;;
8225;SDS011;4154;48.810;9.012;2023-04-08T07:51:12;13.40;;;11.20;;
8225;SDS011;4154;48.810;9.012;2023-04-08T07:53:38;11.40;;;10.30;;
8225;SDS011;4154;48.810;9.012;2023-04-08T07:56:14;12.27;;;10.83;;
8225;SDS011;4154;48.810;9.012;2023-04-08T07:58:42;11.70;;;10.50;;
8225;SDS011;4154;48.810;9.012;2023-04-08T08:01:17;12.40;;;10.93;;
8225;SDS011;4154;48.810;9.012;2023-04-08T08:03:46;10.80;;;9.70;;
8225;SDS011;4154;48.810;9.012;2023-04-08T08:06:15;11.20;;;10.07;;
8225;SDS011;4154;48.810;9.012;2023-04-08T08:08:41;10.97;;;9.83;;
8225;SDS011;4154;48.810;9.012;2023-04-08T08:11:07;10.90;;;9.60;;
8225;SDS011;4154;48.810;9.012;2023-04-08T08:13:33;10.90;;;9.77;;
8225;SDS011;4154;48.810;9.012;2023-04-08T08:15:59;11.10;;;9.90;;
8225;SDS011;4154;48.810;9.012;2023-04-08T08:18:24;10.87;;;9.80;;
8225;SDS011;4154;48.810;9.012;2023-04-08T08:20:50;10.60;;;9.50;;
8225;SDS011;4154;48.810;9.012;2023-04-08T08:23:16;10.83;;;9.73;;
8225;SDS011;4154;48.810;9.012;2023-04-08T08:25:42;10.37;;;9.37;;
8225;SDS011;4154;48.810;9.012;2023-04-08T08:28:07;10.63;;;9.57;;
8225;SDS011;4154;48.810;9.012;2023-04-08T08:30:33;10.20;;;9.20;;
8225;SDS011;4154;48.810;9.012;2023-04-08T08:32:59;9.97;;;8.97;;
8225;SDS011;4154;48.810;9.012;2023-04-08T08:35:25;10.30;;;9.30;;
8225;SDS011;4154;48.810;9.012;2023-04-08T08:37:52;9.83;;;8.83;;
8225;SDS011;4154;48.810;9.012;2023-04-08T08:40:18;10.00;;;9.00;;
8225;SDS011;4154;48.810;9.012;2023-04-08T08:42:50;9.73;;;8.73;;
8225;SDS011;4154;48.810;9.012;2023-04-08T08:45:19;10.00;;;9.07;;
8225;SDS011;4154;48.810;9.012;2023-04-08T08:47:46;9.70;;;8.73;;
8225;SDS011;4154;48.810;9.012;2023-04-08T08:50:12;9.30;;;8.40;;
8225;SDS011;4154;48.810;9.012;2023-04-08T08:52:38;9.87;;;8.97;;
8225;SDS011;4154;48.810;9.012;2023-04-08T08:55:11;9.80;;;8.90;;
8225;SDS011;4154;48.810;9.012;2023-04-08T08:57:37;10.93;;;9.83;;
8225;SDS011;4154;48.810;9.012;2023-04-08T09:00:02;10.60;;;9.60;;
8225;SDS011;4154;48.810;9.012;2023-04-08T09:02:29;10.17;;;9.27;;
8225;SDS011;4154;48.810;9.012;2023-04-08T09:05:05;10.80;;;9.70;;
8225;SDS011;4154;48.810;9.012;2023-04-08T09:07:31;11.20;;;9.30;;
8225;SDS011;4154;48.810;9.012;2023-04-08T09:10:01;9.90;;;9.00;;
8225;SDS011;4154;48.810;9.012;2023-04-08T09:12:28;10.30;;;9.30;;
8225;SDS011;4154;48.810;9.012;2023-04-08T09:15:07;10.90;;;9.90;;
8225;SDS011;4154;48.810;9.012;2023-04-08T09:17:35;10.27;;;9.37;;
8225;SDS011;4154;48.810;9.012;2023-04-08T09:20:04;10.93;;;9.93;;
8225;SDS011;4154;48.810;9.012;2023-04-08T09:22:57;10.30;;;9.30;;
8225;SDS011;4154;48.810;9.012;2023-04-08T09:25:22;10.10;;;9.10;;
8225;SDS011;4154;48.810;9.012;2023-04-08T09:27:53;11.20;;;10.20;;
8225;SDS011;4154;48.810;9.012;2023-04-08T09:30:22;11.27;;;10.23;;
8225;SDS011;4154;48.810;9.012;2023-04-08T09:32:50;10.83;;;9.83;;
8225;SDS011;4154;48.810;9.012;2023-04-08T09:35:21;11.67;;;10.53;;
8225;SDS011;4154;48.810;9.012;2023-04-08T09:37:48;11.77;;;10.57;;
8225;SDS011;4154;48.810;9.012;2023-04-08T09:40:15;11.00;;;9.90;;
8225;SDS011;4154;48.810;9.012;2023-04-08T09:42:46;10.97;;;9.87;;
8225;SDS011;4154;48.810;9.012;2023-04-08T09:45:17;11.03;;;9.93;;
8225;SDS011;4154;48.810;9.012;2023-04-08T09:47:56;10.90;;;9.80;;
8225;SDS011;4154;48.810;9.012;2023-04-08T09:50:49;10.70;;;9.70;;
8225;SDS011;4154;48.810;9.012;2023-04-08T09:53:22;11.50;;;10.40;;
8225;SDS011;4154;48.810;9.012;2023-04-08T09:56:00;10.97;;;9.90;;
8225;SDS011;4154;48.810;9.012;2023-04-08T09:58:33;10.43;;;9.43;;
8225;SDS011;4154;48.810;9.012;2023-04-08T10:01:16;10.70;;;9.60;;
8225;SDS011;4154;48.810;9.012;2023-04-08T10:04:11;9.90;;;9.00;;
8225;SDS011;4154;48.810;9.012;2023-04-08T10:06:44;12.00;;;10.10;;
8225;SDS011;4154;48.810;9.012;2023-04-08T10:09:20;10.70;;;9.70;;
8225;SDS011;4154;48.810;9.012;2023-04-08T10:11:47;10.57;;;9.60;;
8225;SDS011;4154;48.810;9.012;2023-04-08T10:14:13;10.87;;;9.77;;
8225;SDS011;4154;48.810;9.012;2023-04-08T10:16:39;10.13;;;9.23;;
8225;SDS011;4154;48.810;9.012;2023-04-08T10:22:23;11.07;;;10.07;;
8225;SDS011;4154;48.810;9.012;2023-04-08T10:27:41;10.87;;;9.67;;
8225;SDS011;4154;48.810;9.012;2023-04-08T10:32:52;10.57;;;9.57;;
8225;SDS011;4154;48.810;9.012;2023-04-08T10:35:36;11.83;;;10.63;;
8225;SDS011;4154;48.810;9.012;2023-04-08T10:38:06;10.73;;;9.63;;
8225;SDS011;4154;48.810;9.012;2023-04-08T10:40:36;10.23;;;9.33;;
8225;SDS011;4154;48.810;9.012;2023-04-08T10:43:05;11.17;;;10.17;;
8225;SDS011;4154;48.810;9.012;2023-04-08T10:45:31;11.10;;;10.03;;
8225;SDS011;4154;48.810;9.012;2023-04-08T10:53:27;9.97;;;9.00;;
8225;SDS011;4154;48.810;9.012;2023-04-08T10:58:46;10.87;;;9.77;;
8225;SDS011;4154;48.810;9.012;2023-04-08T11:01:17;10.10;;;9.10;;
8225;SDS011;4154;48.810;9.012;2023-04-08T11:03:43;10.80;;;9.80;;
8225;SDS011;4154;48.810;9.012;2023-04-08T11:06:09;10.23;;;9.23;;
8225;SDS011;4154;48.810;9.012;2023-04-08T11:08:35;10.80;;;9.70;;
8225;SDS011;4154;48.810;9.012;2023-04-08T11:11:02;10.47;;;9.57;;
8225;SDS011;4154;48.810;9.012;2023-04-08T11:13:35;10.60;;;9.67;;
8225;SDS011;4154;48.810;9.012;2023-04-08T11:16:06;10.83;;;9.83;;
8225;SDS011;4154;48.810;9.012;2023-04-08T11:18:33;10.53;;;9.53;;
8225;SDS011;4154;48.810;9.012;2023-04-08T11:21:01;10.37;;;9.37;;
8225;SDS011;4154;48.810;9.012;2023-04-08T11:23:28;10.10;;;9.00;;
8225;SDS011;4154;48.810;9.012;2023-04-08T11:25:55;9.87;;;9.00;;
8225;SDS011;4154;48.810;9.012;2023-04-08T11:28:21;9.87;;;8.90;;
8225;SDS011;4154;48.810;9.012;2023-04-08T11:30:48;10.40;;;9.50;;
8225;SDS011;4154;48.810;9.012;2023-04-08T11:33:15;10.13;;;9.23;;
8225;SDS011;4154;48.810;9.012;2023-04-08T11:35:42;10.47;;;9.57;;
8225;SDS011;4154;48.810;9.012;2023-04-08T11:38:08;10.73;;;9.73;;
8225;SDS011;4154;48.810;9.012;2023-04-08T11:40:35;10.47;;;9.57;;
8225;SDS011;4154;48.810;9.012;2023-04-08T11:43:08;9.70;;;8.80;;
8225;SDS011;4154;48.810;9.012;2023-04-08T11:45:38;10.03;;;9.07;;
8225;SDS011;4154;48.810;9.012;2023-04-08T11:50:35;10.70;;;8.63;;
8225;SDS011;4154;48.810;9.012;2023-04-08T11:53:01;9.57;;;8.67;;
8225;SDS011;4154;48.810;9.012;2023-04-08T11:55:28;9.20;;;8.40;;
8225;SDS011;4154;48.810;9.012;2023-04-08T11:57:56;9.90;;;9.00;;
8225;SDS011;4154;48.810;9.012;2023-04-08T12:00:31;9.23;;;8.43;;
8225;SDS011;4154;48.810;9.012;2023-04-08T12:02:58;9.50;;;8.60;;
8225;SDS011;4154;48.810;9.012;2023-04-08T12:05:23;8.27;;;7.33;;
8225;SDS011;4154;48.810;9.012;2023-04-08T12:07:49;9.20;;;8.40;;
8225;SDS011;4154;48.810;9.012;2023-04-08T12:10:14;9.57;;;8.60;;
8225;SDS011;4154;48.810;9.012;2023-04-08T12:12:40;8.93;;;8.10;;
8225;SDS011;4154;48.810;9.012;2023-04-08T12:15:06;9.20;;;8.30;;
8225;SDS011;4154;48.810;9.012;2023-04-08T12:17:33;9.20;;;8.40;;
8225;SDS011;4154;48.810;9.012;2023-04-08T12:20:00;8.83;;;8.13;;
8225;SDS011;4154;48.810;9.012;2023-04-08T12:22:26;9.70;;;8.80;;
8225;SDS011;4154;48.810;9.012;2023-04-08T12:24:52;9.50;;;8.70;;
8225;SDS011;4154;48.810;9.012;2023-04-08T12:27:18;9.70;;;8.83;;
8225;SDS011;4154;48.810;9.012;2023-04-08T12:29:43;10.03;;;9.03;;
8225;SDS011;4154;48.810;9.012;2023-04-08T12:32:10;10.40;;;9.40;;
8225;SDS011;4154;48.810;9.012;2023-04-08T12:34:36;9.70;;;8.80;;
8225;SDS011;4154;48.810;9.012;2023-04-08T12:37:01;10.03;;;9.03;;
8225;SDS011;4154;48.810;9.012;2023-04-08T12:39:27;9.90;;;8.90;;
8225;SDS011;4154;48.810;9.012;2023-04-08T12:41:53;10.20;;;9.20;;
8225;SDS011;4154;48.810;9.012;2023-04-08T12:44:19;10.50;;;9.50;;
8225;SDS011;4154;48.810;9.012;2023-04-08T12:46:44;9.80;;;8.90;;
8225;SDS011;4154;48.810;9.012;2023-04-08T12:49:10;9.33;;;8.50;;
8225;SDS011;4154;48.810;9.012;2023-04-08T12:51:37;9.90;;;8.90;;
8225;SDS011;4154;48.810;9.012;2023-04-08T12:54:02;10.03;;;9.03;;
8225;SDS011;4154;48.810;9.012;2023-04-08T12:56:29;9.43;;;8.63;;
8225;SDS011;4154;48.810;9.012;2023-04-08T12:58:55;10.60;;;9.60;;
8225;SDS011;4154;48.810;9.012;2023-04-08T13:01:23;9.90;;;9.00;;
8225;SDS011;4154;48.810;9.012;2023-04-08T13:03:49;10.03;;;9.03;;
8225;SDS011;4154;48.810;9.012;2023-04-08T13:06:14;9.67;;;8.67;;
8225;SDS011;4154;48.810;9.012;2023-04-08T13:08:40;9.80;;;8.90;;
8225;SDS011;4154;48.810;9.012;2023-04-08T13:11:07;10.10;;;8.83;;
8225;SDS011;4154;48.810;9.012;2023-04-08T13:13:33;10.00;;;9.13;;
8225;SDS011;4154;48.810;9.012;2023-04-08T13:15:59;9.47;;;8.57;;
8225;SDS011;4154;48.810;9.012;2023-04-08T13:18:25;9.80;;;8.87;;
8225;SDS011;4154;48.810;9.012;2023-04-08T13:20:51;9.53;;;8.73;;
8225;SDS011;4154;48.810;9.012;2023-04-08T13:23:18;8.93;;;8.13;;
8225;SDS011;4154;48.810;9.012;2023-04-08T13:25:45;9.77;;;8.77;;
8225;SDS011;4154;48.810;9.012;2023-04-08T13:28:12;9.60;;;8.70;;
8225;SDS011;4154;48.810;9.012;2023-04-08T13:30:38;9.87;;;8.97;;
8225;SDS011;4154;48.810;9.012;2023-04-08T13:33:04;9.10;;;8.23;;
8225;SDS011;4154;48.810;9.012;2023-04-08T13:35:30;10.03;;;9.07;;
8225;SDS011;4154;48.810;9.012;2023-04-08T13:37:56;9.80;;;8.93;;
8225;SDS011;4154;48.810;9.012;2023-04-08T13:40:22;9.87;;;8.83;;
8225;SDS011;4154;48.810;9.012;2023-04-08T13:42:57;9.60;;;8.70;;
8225;SDS011;4154;48.810;9.012;2023-04-08T13:45:23;9.60;;;8.67;;
8225;SDS011;4154;48.810;9.012;2023-04-08T13:47:49;10.07;;;9.17;;
8225;SDS011;4154;48.810;9.012;2023-04-08T13:50:14;10.17;;;9.10;;
8225;SDS011;4154;48.810;9.012;2023-04-08T13:52:40;9.70;;;8.87;;
8225;SDS011;4154;48.810;9.012;2023-04-08T13:55:06;10.23;;;9.17;;
8225;SDS011;4154;48.810;9.012;2023-04-08T13:57:32;10.40;;;9.33;;
8225;SDS011;4154;48.810;9.012;2023-04-08T13:59:58;10.33;;;9.30;;
8225;SDS011;4154;48.810;9.012;2023-04-08T14:02:24;9.53;;;8.73;;
8225;SDS011;4154;48.810;9.012;2023-04-08T14:04:50;9.57;;;8.77;;
8225;SDS011;4154;48.810;9.012;2023-04-08T14:07:16;9.93;;;8.97;;
8225;SDS011;4154;48.810;9.012;2023-04-08T14:09:43;10.00;;;9.10;;
8225;SDS011;4154;48.810;9.012;2023-04-08T14:12:10;9.87;;;8.87;;
8225;SDS011;4154;48.810;9.012;2023-04-08T14:14:36;9.60;;;8.70;;
8225;SDS011;4154;48.810;9.012;2023-04-08T14:17:02;9.43;;;8.53;;
8225;SDS011;4154;48.810;9.012;2023-04-08T14:19:28;9.10;;;8.30;;
8225;SDS011;4154;48.810;9.012;2023-04-08T14:21:54;9.37;;;8.57;;
8225;SDS011;4154;48.810;9.012;2023-04-08T14:24:20;9.53;;;8.73;;
8225;SDS011;4154;48.810;9.012;2023-04-08T14:26:45;9.30;;;8.40;;
8225;SDS011;4154;48.810;9.012;2023-04-08T14:29:11;9.67;;;8.87;;
8225;SDS011;4154;48.810;9.012;2023-04-08T14:31:37;10.10;;;9.03;;
8225;SDS011;4154;48.810;9.012;2023-04-08T14:34:03;9.80;;;8.90;;
8225;SDS011;4154;48.810;9.012;2023-04-08T14:36:29;9.57;;;8.67;;
8225;SDS011;4154;48.810;9.012;2023-04-08T14:38:58;9.63;;;8.73;;
8225;SDS011;4154;48.810;9.012;2023-04-08T14:41:25;9.90;;;8.90;;
8225;SDS011;4154;48.810;9.012;2023-04-08T14:43:51;9.53;;;8.67;;
8225;SDS011;4154;48.810;9.012;2023-04-08T14:46:18;10.17;;;9.20;;
8225;SDS011;4154;48.810;9.012;2023-04-08T14:48:44;9.23;;;8.43;;
8225;SDS011;4154;48.810;9.012;2023-04-08T14:51:10;8.90;;;8.07;;
8225;SDS011;4154;48.810;9.012;2023-04-08T14:53:36;9.07;;;8.27;;
8225;SDS011;4154;48.810;9.012;2023-04-08T14:56:02;9.97;;;8.97;;
8225;SDS011;4154;48.810;9.012;2023-04-08T14:58:29;9.73;;;8.73;;
8225;SDS011;4154;48.810;9.012;2023-04-08T15:00:54;9.20;;;8.40;;
8225;SDS011;4154;48.810;9.012;2023-04-08T15:03:20;8.80;;;8.00;;
8225;SDS011;4154;48.810;9.012;2023-04-08T15:05:47;8.57;;;7.67;;
8225;SDS011;4154;48.810;9.012;2023-04-08T15:08:13;9.17;;;8.37;;
8225;SDS011;4154;48.810;9.012;2023-04-08T15:10:39;8.80;;;8.00;;
8225;SDS011;4154;48.810;9.012;2023-04-08T15:13:05;9.23;;;8.43;;
8225;SDS011;4154;48.810;9.012;2023-04-08T15:15:32;9.00;;;8.13;;
8225;SDS011;4154;48.810;9.012;2023-04-08T15:17:59;9.13;;;8.33;;
8225;SDS011;4154;48.810;9.012;2023-04-08T15:20:27;9.47;;;8.47;;
8225;SDS011;4154;48.810;9.012;2023-04-08T15:22:56;9.73;;;8.73;;
8225;SDS011;4154;48.810;9.012;2023-04-08T15:25:22;9.13;;;8.33;;
8225;SDS011;4154;48.810;9.012;2023-04-08T15:27:48;9.37;;;8.40;;